Time;durP1;ratioP1;P1;durP2;ratioP2;P2;SDS_P1;SDS_P2;PMS_P1;PMS_P2;Temp;Humidity;BMP_temperature;BMP_pressure;BME280_temperature;BME280_humidity;BME280_pressure;Samples;Min_cycle;Max_cycle;Signal;HPM_P1;HPM_P2
2024/01/06 00:01:29;;;;;;;123.50;115.90;;;1.90;99.90;;;;;;5068419;28;20498;-77
2024/01/06 00:03:55;;;;;;;149.10;139.77;;;1.90;99.90;;;;;;5072095;28;20054;-77
2024/01/06 00:06:21;;;;;;;151.83;142.30;;;1.90;99.90;;;;;;5059295;28;20780;-77
2024/01/06 00:08:53;;;;;;;137.90;129.50;;;1.80;99.90;;;;;;5078487;28;20043;-77
2024/01/06 00:11:20;;;;;;;119.47;111.82;;;1.80;99.90;;;;;;5064573;28;20501;-77
2024/01/06 00:13:46;;;;;;;175.45;164.63;;;1.80;99.90;;;;;;5053016;28;20036;-77
2024/01/06 00:16:11;;;;;;;130.83;123.03;;;1.80;99.90;;;;;;5082882;28;20414;-77
2024/01/06 00:18:37;;;;;;;142.83;133.97;;;1.80;99.90;;;;;;5088563;28;20047;-77
2024/01/06 00:21:03;;;;;;;114.30;107.33;;;1.80;99.90;;;;;;5057549;28;20612;-76
2024/01/06 00:23:29;;;;;;;217.33;204.50;;;1.80;99.90;;;;;;5080786;28;20033;-77
2024/01/06 00:25:54;;;;;;;155.90;146.33;;;1.80;99.90;;;;;;5054260;28;20662;-77
2024/01/06 00:28:20;;;;;;;123.77;116.50;;;1.80;99.90;;;;;;5053591;28;20058;-76
2024/01/06 00:30:45;;;;;;;114.93;108.13;;;1.70;99.90;;;;;;5073013;28;20037;-77
2024/01/06 00:33:12;;;;;;;136.93;128.53;;;1.70;99.90;;;;;;5080419;28;20164;-77
2024/01/06 00:35:38;;;;;;;119.68;112.30;;;1.70;99.90;;;;;;5087570;28;20035;-77
2024/01/06 00:38:03;;;;;;;133.90;125.87;;;1.70;99.90;;;;;;5070255;28;20378;-77
2024/01/06 00:40:29;;;;;;;160.70;150.97;;;1.60;99.90;;;;;;5072142;28;20036;-77
2024/01/06 00:42:55;;;;;;;128.83;121.40;;;1.60;99.90;;;;;;5063126;28;20405;-77
2024/01/06 00:45:20;;;;;;;127.70;120.10;;;1.60;99.90;;;;;;5053636;28;20505;-77
2024/01/06 00:47:46;;;;;;;163.53;154.03;;;1.60;99.90;;;;;;5084685;28;20032;-77
2024/01/06 00:50:12;;;;;;;122.33;114.97;;;1.60;99.90;;;;;;5088811;28;20102;-77
2024/01/06 00:52:38;;;;;;;126.68;118.63;;;1.60;99.90;;;;;;5057327;28;20512;-77
2024/01/06 00:55:04;;;;;;;101.00;95.00;;;1.60;99.90;;;;;;5084855;28;20040;-77
2024/01/06 00:57:30;;;;;;;108.60;102.10;;;1.60;99.90;;;;;;5076852;28;20032;-77
2024/01/06 00:59:55;;;;;;;85.00;79.40;;;1.60;99.90;;;;;;5080192;28;20050;-77
2024/01/06 01:02:21;;;;;;;85.67;80.43;;;1.60;99.90;;;;;;5060598;28;20126;-77
2024/01/06 01:04:47;;;;;;;104.50;97.95;;;1.60;99.90;;;;;;5068830;28;20107;-77
2024/01/06 01:07:13;;;;;;;95.17;89.33;;;1.50;99.90;;;;;;5074906;28;20145;-77
2024/01/06 01:09:38;;;;;;;108.00;101.50;;;1.50;99.90;;;;;;5067107;28;20042;-77
2024/01/06 01:12:04;;;;;;;87.83;82.33;;;1.50;99.90;;;;;;5069757;28;20075;-77
2024/01/06 01:14:30;;;;;;;117.85;111.00;;;1.50;99.90;;;;;;5075107;28;20402;-77
2024/01/06 01:16:56;;;;;;;80.23;75.57;;;1.50;99.90;;;;;;5078266;28;20302;-77
2024/01/06 01:19:21;;;;;;;166.10;155.07;;;1.50;99.90;;;;;;5072226;28;20032;-77
2024/01/06 01:21:47;;;;;;;109.93;103.30;;;1.50;99.90;;;;;;5062249;28;20090;-77
2024/01/06 01:24:13;;;;;;;88.30;82.70;;;1.50;99.90;;;;;;5061144;28;20051;-76
2024/01/06 01:26:38;;;;;;;140.87;132.83;;;1.40;99.90;;;;;;5071683;28;20117;-76
2024/01/06 01:29:04;;;;;;;94.60;89.00;;;1.50;99.90;;;;;;5080384;28;20054;-77
2024/01/06 01:31:30;;;;;;;99.73;93.70;;;1.40;99.90;;;;;;5054925;28;20098;-76
2024/01/06 01:33:55;;;;;;;116.80;109.87;;;1.50;99.90;;;;;;5060405;28;20042;-77
2024/01/06 01:36:21;;;;;;;234.87;219.77;;;1.50;99.90;;;;;;5059879;28;20531;-77
2024/01/06 01:38:47;;;;;;;111.57;104.67;;;1.50;99.90;;;;;;5057820;28;20113;-77
2024/01/06 01:41:13;;;;;;;96.67;90.77;;;1.50;99.90;;;;;;5081981;28;20297;-77
2024/01/06 01:43:38;;;;;;;141.50;132.63;;;1.50;99.90;;;;;;5067856;28;20036;-77
2024/01/06 01:46:04;;;;;;;164.37;154.50;;;1.50;99.90;;;;;;5084467;28;20735;-77
2024/01/06 01:48:33;;;;;;;130.70;122.77;;;1.50;99.90;;;;;;5065011;28;20459;-77
2024/01/06 01:50:59;;;;;;;155.60;146.32;;;1.50;99.90;;;;;;5053600;28;20557;-76
2024/01/06 01:53:26;;;;;;;126.63;118.97;;;1.60;99.90;;;;;;5083752;28;20047;-77
2024/01/06 01:55:52;;;;;;;122.05;114.35;;;1.60;99.90;;;;;;5079148;28;20048;-76
2024/01/06 01:58:19;;;;;;;147.00;138.15;;;1.60;99.90;;;;;;5073413;28;20518;-77
2024/01/06 02:00:44;;;;;;;116.57;109.68;;;1.60;99.90;;;;;;5081985;28;20173;-77
2024/01/06 02:03:12;;;;;;;129.87;122.30;;;1.50;99.90;;;;;;5068188;28;20139;-76
2024/01/06 02:05:38;;;;;;;134.05;126.38;;;1.50;99.90;;;;;;5074908;28;20056;-77
2024/01/06 02:08:05;;;;;;;153.43;144.57;;;1.50;99.90;;;;;;5081543;28;20121;-77
2024/01/06 02:10:31;;;;;;;195.93;183.38;;;1.50;99.90;;;;;;5075807;28;20043;-77
2024/01/06 02:12:56;;;;;;;158.32;148.73;;;1.50;99.90;;;;;;5077578;28;20027;-76
2024/01/06 02:15:22;;;;;;;112.67;105.73;;;1.50;99.90;;;;;;5058401;28;20048;-77
2024/01/06 02:17:49;;;;;;;165.27;155.17;;;1.50;99.90;;;;;;5056060;28;20033;-77
2024/01/06 02:20:16;;;;;;;117.30;110.30;;;1.50;99.90;;;;;;5053361;28;20406;-76
2024/01/06 02:22:41;;;;;;;103.60;97.38;;;1.40;99.90;;;;;;5077895;28;20044;-76
2024/01/06 02:25:12;;;;;;;115.00;107.60;;;1.40;99.90;;;;;;5082316;28;20044;-76
2024/01/06 02:27:40;;;;;;;87.85;82.28;;;1.40;99.90;;;;;;5063148;28;20036;-77
2024/01/06 02:30:07;;;;;;;140.02;131.52;;;1.40;99.90;;;;;;5074833;28;20036;-76
2024/01/06 02:32:33;;;;;;;135.25;126.97;;;1.40;99.90;;;;;;5071781;28;20040;-77
2024/01/06 02:34:58;;;;;;;192.43;180.97;;;1.40;99.90;;;;;;5073997;28;20070;-76
2024/01/06 02:37:24;;;;;;;114.23;107.03;;;1.40;99.90;;;;;;5067976;28;20076;-76
2024/01/06 02:39:53;;;;;;;201.50;188.87;;;1.40;99.90;;;;;;5075261;28;20118;-76
2024/01/06 02:42:19;;;;;;;113.43;106.10;;;1.40;99.90;;;;;;5063042;28;20041;-76
2024/01/06 02:44:45;;;;;;;108.07;101.43;;;1.50;99.90;;;;;;5090871;28;20040;-77
2024/01/06 02:47:10;;;;;;;102.00;95.87;;;1.50;99.90;;;;;;5084990;28;20531;-77
2024/01/06 02:49:36;;;;;;;139.83;131.43;;;1.50;99.90;;;;;;5057840;28;20036;-77
2024/01/06 02:52:01;;;;;;;215.57;201.10;;;1.50;99.90;;;;;;5062264;28;20036;-77
2024/01/06 02:54:27;;;;;;;158.43;148.90;;;1.50;99.90;;;;;;5060426;28;20054;-76
2024/01/06 02:56:53;;;;;;;98.00;91.87;;;1.50;99.90;;;;;;5063543;28;20028;-76
2024/01/06 02:59:18;;;;;;;126.47;118.70;;;1.50;99.90;;;;;;5070980;28;20083;-77
2024/01/06 03:01:44;;;;;;;112.70;105.93;;;1.50;99.90;;;;;;5075557;28;20115;-76
2024/01/06 03:04:10;;;;;;;121.00;112.97;;;1.50;99.90;;;;;;5089158;28;20039;-76
2024/01/06 03:06:35;;;;;;;116.07;108.77;;;1.50;99.90;;;;;;5089866;28;20048;-76
2024/01/06 03:09:01;;;;;;;120.30;112.77;;;1.50;99.90;;;;;;5076878;28;20552;-76
2024/01/06 03:11:27;;;;;;;181.57;169.43;;;1.50;99.90;;;;;;5076318;28;20060;-76
2024/01/06 03:13:52;;;;;;;154.40;144.97;;;1.50;99.90;;;;;;5086350;28;20127;-76
2024/01/06 03:16:18;;;;;;;115.90;108.67;;;1.50;99.90;;;;;;5085608;28;20040;-76
2024/01/06 03:18:44;;;;;;;103.83;97.37;;;1.60;99.90;;;;;;5067375;28;20039;-76
2024/01/06 03:21:20;;;;;;;96.10;89.93;;;1.60;99.90;;;;;;5067147;28;20040;-77
2024/01/06 03:23:46;;;;;;;106.68;100.00;;;1.60;99.90;;;;;;5078283;28;20127;-77
2024/01/06 03:26:12;;;;;;;114.43;107.05;;;1.50;99.90;;;;;;5080586;28;20040;-76
2024/01/06 03:28:38;;;;;;;125.23;117.13;;;1.50;99.90;;;;;;5073565;28;20405;-77
2024/01/06 03:31:03;;;;;;;118.83;111.33;;;1.50;99.90;;;;;;5058061;28;20048;-76
2024/01/06 03:33:29;;;;;;;128.27;120.47;;;1.60;99.90;;;;;;5070976;28;20449;-76
2024/01/06 03:35:55;;;;;;;114.07;107.43;;;1.60;99.90;;;;;;5080824;28;20036;-76
2024/01/06 03:38:20;;;;;;;136.53;127.80;;;1.60;99.90;;;;;;5079041;28;20036;-77
2024/01/06 03:40:46;;;;;;;131.97;123.57;;;1.60;99.90;;;;;;5058617;28;20474;-77
2024/01/06 03:43:11;;;;;;;136.47;127.13;;;1.50;99.90;;;;;;5079211;28;20044;-77
2024/01/06 03:45:37;;;;;;;83.07;77.57;;;1.50;99.90;;;;;;5072828;28;20038;-76
2024/01/06 03:48:03;;;;;;;134.50;126.13;;;1.50;99.90;;;;;;5078109;28;20436;-76
2024/01/06 03:50:29;;;;;;;133.67;125.07;;;1.50;99.90;;;;;;5065170;28;20454;-76
2024/01/06 03:52:54;;;;;;;138.47;129.77;;;1.50;99.90;;;;;;5088367;28;20064;-76
2024/01/06 03:55:20;;;;;;;148.57;139.33;;;1.50;99.90;;;;;;5089215;28;20417;-76
2024/01/06 03:57:46;;;;;;;151.67;141.67;;;1.50;99.90;;;;;;5069599;28;20044;-76
2024/01/06 04:00:12;;;;;;;112.17;104.93;;;1.50;99.90;;;;;;5072964;28;20039;-76
2024/01/06 04:02:37;;;;;;;157.70;147.57;;;1.50;99.90;;;;;;5064983;28;20036;-77
2024/01/06 04:05:05;;;;;;;100.20;93.67;;;1.50;99.90;;;;;;5054337;28;20052;-76
2024/01/06 04:07:30;;;;;;;86.97;81.38;;;1.50;99.90;;;;;;5088929;28;20124;-76
2024/01/06 04:09:56;;;;;;;134.90;126.67;;;1.50;99.90;;;;;;5065216;28;20111;-77
2024/01/06 04:12:22;;;;;;;114.57;107.43;;;1.50;99.90;;;;;;5078064;28;20040;-76
2024/01/06 04:14:47;;;;;;;144.73;135.83;;;1.50;99.90;;;;;;5066844;28;20036;-76
2024/01/06 04:17:13;;;;;;;100.37;93.63;;;1.50;99.90;;;;;;5078109;28;20391;-77
2024/01/06 04:19:39;;;;;;;107.57;100.73;;;1.50;99.90;;;;;;5080574;28;20401;-76
2024/01/06 04:22:04;;;;;;;155.93;146.33;;;1.50;99.90;;;;;;5080779;28;20093;-76
2024/01/06 04:24:30;;;;;;;124.10;116.60;;;1.50;99.90;;;;;;5072983;28;20048;-76
2024/01/06 04:26:56;;;;;;;114.28;107.05;;;1.50;99.90;;;;;;5051983;28;20047;-76
2024/01/06 04:29:22;;;;;;;108.63;101.63;;;1.50;99.90;;;;;;5073014;28;20115;-76
2024/01/06 04:31:47;;;;;;;135.87;127.43;;;1.40;99.90;;;;;;5078049;28;20039;-76
2024/01/06 04:34:14;;;;;;;98.20;92.10;;;1.50;99.90;;;;;;5076307;28;20123;-76
2024/01/06 04:36:39;;;;;;;84.90;79.80;;;1.50;99.90;;;;;;5053482;28;20051;-76
2024/01/06 04:39:05;;;;;;;116.13;108.87;;;1.50;99.90;;;;;;5086920;28;20040;-76
2024/01/06 04:41:31;;;;;;;97.07;90.73;;;1.40;99.90;;;;;;5075034;28;20459;-76
2024/01/06 04:43:57;;;;;;;131.40;123.23;;;1.50;99.90;;;;;;5075151;28;20048;-76
2024/01/06 04:46:22;;;;;;;104.50;97.13;;;1.50;99.90;;;;;;5052083;28;20091;-76
2024/01/06 04:48:48;;;;;;;139.07;129.97;;;1.50;99.90;;;;;;5082072;28;20113;-76
2024/01/06 04:51:14;;;;;;;103.87;97.03;;;1.50;99.90;;;;;;5085853;28;20131;-76
2024/01/06 04:53:40;;;;;;;90.45;84.85;;;1.50;99.90;;;;;;5072837;28;20040;-76
2024/01/06 04:56:06;;;;;;;108.53;101.60;;;1.40;99.90;;;;;;5077743;28;20377;-76
2024/01/06 04:58:31;;;;;;;87.77;82.00;;;1.50;99.90;;;;;;5070143;28;20039;-76
2024/01/06 05:00:57;;;;;;;72.30;67.83;;;1.50;99.90;;;;;;5087528;28;20130;-76
2024/01/06 05:03:23;;;;;;;130.23;122.13;;;1.50;99.90;;;;;;5068038;28;20044;-76
2024/01/06 05:05:49;;;;;;;127.93;119.88;;;1.50;99.90;;;;;;5067125;28;20151;-76
2024/01/06 05:08:17;;;;;;;126.23;118.70;;;1.50;99.90;;;;;;5083431;28;20413;-76
2024/01/06 05:10:42;;;;;;;121.95;114.57;;;1.50;99.90;;;;;;5061088;28;20036;-76
2024/01/06 05:13:08;;;;;;;82.87;77.77;;;1.50;99.90;;;;;;5078558;28;20164;-76
2024/01/06 05:15:34;;;;;;;102.70;96.33;;;1.50;99.90;;;;;;5063933;28;20041;-76
2024/01/06 05:17:59;;;;;;;111.83;104.53;;;1.50;99.90;;;;;;5062290;28;20123;-76
2024/01/06 05:20:25;;;;;;;152.47;142.93;;;1.50;99.90;;;;;;5075250;28;20060;-76
2024/01/06 05:22:51;;;;;;;141.17;132.37;;;1.50;99.90;;;;;;5087714;28;20032;-76
2024/01/06 05:25:17;;;;;;;136.87;128.77;;;1.50;99.90;;;;;;5063687;28;20105;-75
2024/01/06 05:27:42;;;;;;;67.20;62.83;;;1.50;99.90;;;;;;5073505;28;20041;-76
2024/01/06 05:30:08;;;;;;;155.80;146.10;;;1.50;99.90;;;;;;5074299;28;20063;-76
2024/01/06 05:32:34;;;;;;;104.82;98.40;;;1.50;99.90;;;;;;5066679;28;20444;-76
2024/01/06 05:35:00;;;;;;;105.67;98.93;;;1.50;99.90;;;;;;5080151;28;20034;-76
2024/01/06 05:37:25;;;;;;;127.40;119.53;;;1.50;99.90;;;;;;5054043;28;20085;-76
2024/01/06 05:39:51;;;;;;;78.37;73.13;;;1.50;99.90;;;;;;5087786;28;20035;-76
2024/01/06 05:42:17;;;;;;;175.45;164.80;;;1.50;99.90;;;;;;5068026;28;20489;-76
2024/01/06 05:44:43;;;;;;;171.10;160.70;;;1.50;99.90;;;;;;5071294;28;20055;-76
2024/01/06 05:47:08;;;;;;;145.37;136.60;;;1.60;99.90;;;;;;5071656;28;20590;-76
2024/01/06 05:49:34;;;;;;;107.03;100.77;;;1.50;99.90;;;;;;5071476;28;20044;-76
2024/01/06 05:52:00;;;;;;;115.83;108.73;;;1.50;99.90;;;;;;5071274;28;20033;-76
2024/01/06 05:54:26;;;;;;;121.70;113.93;;;1.60;99.90;;;;;;5057342;28;20074;-76
2024/01/06 05:56:52;;;;;;;123.47;115.60;;;1.50;99.90;;;;;;5081572;28;20537;-76
2024/01/06 05:59:17;;;;;;;156.47;147.30;;;1.60;99.90;;;;;;5074695;28;20044;-76
2024/01/06 06:01:43;;;;;;;109.13;102.33;;;1.60;99.90;;;;;;5053891;28;20348;-76
2024/01/06 06:04:12;;;;;;;124.17;116.27;;;1.60;99.90;;;;;;5078717;28;20410;-76
2024/01/06 06:06:38;;;;;;;102.22;96.05;;;1.60;99.90;;;;;;5087321;28;20079;-76
2024/01/06 06:09:06;;;;;;;100.17;93.83;;;1.60;99.90;;;;;;5063725;28;20577;-76
2024/01/06 06:11:33;;;;;;;119.72;111.97;;;1.60;99.90;;;;;;5066471;28;20047;-75
2024/01/06 06:13:59;;;;;;;112.50;105.30;;;1.60;99.90;;;;;;5056692;28;20039;-76
2024/01/06 06:16:24;;;;;;;68.93;63.97;;;1.60;99.90;;;;;;5068060;28;20421;-76
2024/01/06 06:18:50;;;;;;;156.20;146.57;;;1.60;99.90;;;;;;5068769;28;20160;-76
2024/01/06 06:21:16;;;;;;;114.23;106.77;;;1.60;99.90;;;;;;5084563;28;20048;-76
2024/01/06 06:23:41;;;;;;;138.53;129.83;;;1.60;99.90;;;;;;5078760;28;20043;-76
2024/01/06 06:26:08;;;;;;;127.73;120.20;;;1.60;99.90;;;;;;5077294;28;20039;-76
2024/01/06 06:28:34;;;;;;;129.73;121.60;;;1.60;99.90;;;;;;5076262;28;20040;-76
2024/01/06 06:31:01;;;;;;;89.95;84.35;;;1.60;99.90;;;;;;5086645;28;20126;-76
2024/01/06 06:33:27;;;;;;;105.00;98.60;;;1.60;99.90;;;;;;5068105;28;20599;-76
2024/01/06 06:35:53;;;;;;;144.67;136.30;;;1.60;99.90;;;;;;5085856;28;20107;-76
2024/01/06 06:38:18;;;;;;;83.47;77.83;;;1.60;99.90;;;;;;5062425;28;20462;-76
2024/01/06 06:40:44;;;;;;;138.23;129.77;;;1.60;99.90;;;;;;5054856;28;20094;-76
2024/01/06 06:43:10;;;;;;;105.20;98.77;;;1.60;99.90;;;;;;5060191;28;20039;-76
2024/01/06 06:45:35;;;;;;;138.17;129.20;;;1.60;99.90;;;;;;5060007;28;20131;-76
2024/01/06 06:48:01;;;;;;;102.90;96.57;;;1.60;99.90;;;;;;5075458;28;20318;-76
2024/01/06 06:50:27;;;;;;;127.38;119.90;;;1.60;99.90;;;;;;5074199;28;20559;-76
2024/01/06 06:52:53;;;;;;;100.60;94.20;;;1.60;99.90;;;;;;5078716;28;20040;-76
2024/01/06 06:55:19;;;;;;;113.03;106.10;;;1.60;99.90;;;;;;5075619;28;20406;-76
2024/01/06 06:57:45;;;;;;;74.30;69.38;;;1.60;99.90;;;;;;5066038;28;20390;-76
2024/01/06 07:00:11;;;;;;;87.85;82.32;;;1.70;99.90;;;;;;5063555;28;20040;-76
2024/01/06 07:02:37;;;;;;;98.18;92.00;;;1.60;99.90;;;;;;5059316;28;20397;-76
2024/01/06 07:05:06;;;;;;;153.32;143.85;;;1.60;99.90;;;;;;5070359;28;20047;-76
2024/01/06 07:07:33;;;;;;;129.63;121.80;;;1.70;99.90;;;;;;5087010;28;20056;-76
2024/01/06 07:10:01;;;;;;;101.95;95.85;;;1.70;99.90;;;;;;5083264;28;20044;-76
2024/01/06 07:12:27;;;;;;;110.55;103.63;;;1.70;99.90;;;;;;5070138;28;20044;-76
2024/01/06 07:14:53;;;;;;;81.85;76.63;;;1.70;99.90;;;;;;5066158;28;20550;-76
2024/01/06 07:17:19;;;;;;;135.57;127.22;;;1.70;99.90;;;;;;5068342;28;20040;-76
2024/01/06 07:19:45;;;;;;;129.57;121.47;;;1.70;99.90;;;;;;5072031;28;20089;-76
2024/01/06 07:22:10;;;;;;;103.60;96.47;;;1.70;99.90;;;;;;5072941;28;20036;-76
2024/01/06 07:24:36;;;;;;;97.23;91.10;;;1.70;99.90;;;;;;5068268;28;20048;-75
2024/01/06 07:27:05;;;;;;;132.23;123.63;;;1.70;99.90;;;;;;5072366;28;20497;-76
2024/01/06 07:29:31;;;;;;;102.97;96.43;;;1.70;99.90;;;;;;5055219;28;20482;-76
2024/01/06 07:31:57;;;;;;;90.13;84.37;;;1.70;99.90;;;;;;5073602;28;20047;-76
2024/01/06 07:34:23;;;;;;;132.43;123.73;;;1.70;99.90;;;;;;5054857;28;20037;-76
2024/01/06 07:36:49;;;;;;;113.30;106.53;;;1.70;99.90;;;;;;5075149;28;20177;-76
2024/01/06 07:39:14;;;;;;;116.70;109.17;;;1.70;99.90;;;;;;5074191;28;20040;-76
2024/01/06 07:41:40;;;;;;;90.17;83.90;;;1.70;99.90;;;;;;5080393;28;20070;-75
2024/01/06 07:44:06;;;;;;;123.87;115.97;;;1.80;99.90;;;;;;5060790;28;20106;-76
2024/01/06 07:46:32;;;;;;;89.90;84.23;;;1.70;99.90;;;;;;5077507;28;20068;-75
2024/01/06 07:48:57;;;;;;;109.73;102.73;;;1.80;99.90;;;;;;5066634;28;20040;-75
2024/01/06 07:51:23;;;;;;;56.97;53.20;;;1.80;99.90;;;;;;5076818;28;20043;-75
2024/01/06 07:53:49;;;;;;;118.22;111.20;;;1.80;99.90;;;;;;5059440;28;20389;-75
2024/01/06 07:56:15;;;;;;;82.10;77.00;;;1.80;99.90;;;;;;5066534;28;20052;-75
2024/01/06 07:58:41;;;;;;;119.73;112.47;;;1.80;99.90;;;;;;5052773;28;20538;-75
2024/01/06 08:01:06;;;;;;;157.87;148.77;;;1.80;99.90;;;;;;5063416;28;20578;-75
2024/01/06 08:03:32;;;;;;;90.90;85.30;;;1.80;99.90;;;;;;5075102;28;20075;-75
2024/01/06 08:05:58;;;;;;;112.07;104.68;;;1.80;99.90;;;;;;5058485;28;20375;-75
2024/01/06 08:08:24;;;;;;;99.17;93.00;;;1.90;99.90;;;;;;5071193;28;20127;-75
2024/01/06 08:10:50;;;;;;;114.97;107.73;;;1.80;99.90;;;;;;5070845;28;20059;-75
2024/01/06 08:13:16;;;;;;;70.13;65.50;;;1.90;99.90;;;;;;5064657;28;20036;-75
2024/01/06 08:15:42;;;;;;;135.93;128.00;;;1.90;99.90;;;;;;5068327;28;20133;-74
2024/01/06 08:18:07;;;;;;;128.60;120.67;;;1.90;99.90;;;;;;5064127;28;21591;-74
2024/01/06 08:20:33;;;;;;;148.07;139.13;;;1.90;99.90;;;;;;5076373;28;20597;-75
2024/01/06 08:22:59;;;;;;;124.97;117.77;;;1.90;99.90;;;;;;5059563;28;20028;-75
2024/01/06 08:25:24;;;;;;;133.57;125.60;;;1.90;99.90;;;;;;5071064;28;20044;-74
2024/01/06 08:27:50;;;;;;;118.43;111.20;;;1.90;99.90;;;;;;5080245;28;20036;-75
2024/01/06 08:30:16;;;;;;;86.73;81.37;;;1.90;99.90;;;;;;5073311;28;20144;-75
2024/01/06 08:32:41;;;;;;;93.60;87.53;;;2.00;99.90;;;;;;5068127;28;20064;-75
2024/01/06 08:35:08;;;;;;;166.23;155.97;;;2.00;99.90;;;;;;5077881;28;20035;-75
2024/01/06 08:37:33;;;;;;;130.40;122.55;;;2.00;99.90;;;;;;5082353;28;20034;-75
2024/01/06 08:39:59;;;;;;;107.33;100.97;;;2.00;99.90;;;;;;5069947;28;20040;-74
2024/01/06 08:42:25;;;;;;;143.00;134.70;;;2.00;99.90;;;;;;5060116;28;20464;-75
2024/01/06 08:44:51;;;;;;;82.10;76.90;;;2.00;99.90;;;;;;5074207;28;20077;-74
2024/01/06 08:47:17;;;;;;;77.53;72.63;;;1.90;99.90;;;;;;5072805;28;20078;-75
2024/01/06 08:49:43;;;;;;;132.03;124.07;;;2.00;99.90;;;;;;5062285;28;20043;-75
2024/01/06 08:52:09;;;;;;;84.83;79.73;;;2.00;99.90;;;;;;5062367;28;20302;-74
2024/01/06 08:54:35;;;;;;;109.00;102.47;;;2.00;99.90;;;;;;5051441;28;20456;-75
2024/01/06 08:57:00;;;;;;;176.23;165.77;;;2.00;99.90;;;;;;5050677;28;20116;-74
2024/01/06 08:59:26;;;;;;;131.47;123.53;;;2.00;99.90;;;;;;5068783;28;20124;-74
2024/01/06 09:01:52;;;;;;;133.47;125.40;;;2.00;99.90;;;;;;5062881;28;20461;-75
2024/01/06 09:04:18;;;;;;;118.97;112.07;;;2.00;99.90;;;;;;5077208;28;20051;-74
2024/01/06 09:06:46;;;;;;;88.00;82.65;;;2.00;99.90;;;;;;5069363;28;20048;-75
2024/01/06 09:09:13;;;;;;;129.55;121.43;;;2.00;99.90;;;;;;5069720;28;20729;-74
2024/01/06 09:11:39;;;;;;;136.15;128.27;;;2.00;99.90;;;;;;5068119;28;20045;-74
2024/01/06 09:14:04;;;;;;;156.43;147.37;;;1.90;99.90;;;;;;5078312;28;20036;-75
2024/01/06 09:16:30;;;;;;;119.50;112.17;;;1.90;99.90;;;;;;5069782;28;20036;-75
2024/01/06 09:18:56;;;;;;;130.60;122.87;;;1.90;99.90;;;;;;5074153;28;20032;-74
2024/01/06 09:21:22;;;;;;;96.17;90.20;;;1.90;99.90;;;;;;5080130;28;20455;-75
2024/01/06 09:23:47;;;;;;;57.47;53.63;;;1.90;99.90;;;;;;5070646;28;20421;-75
2024/01/06 09:26:13;;;;;;;176.50;165.97;;;2.00;99.90;;;;;;5056144;28;20079;-74
2024/01/06 09:28:39;;;;;;;151.13;142.37;;;2.00;99.90;;;;;;5077530;28;20041;-75
2024/01/06 09:31:05;;;;;;;158.37;149.03;;;2.00;99.90;;;;;;5085932;28;20044;-75
2024/01/06 09:33:32;;;;;;;94.30;88.33;;;2.00;99.90;;;;;;5081586;28;20136;-75
2024/01/06 09:35:58;;;;;;;149.35;140.23;;;2.00;99.90;;;;;;5061406;28;20039;-75
2024/01/06 09:38:23;;;;;;;148.13;139.07;;;2.00;99.90;;;;;;5078745;28;20040;-75
2024/01/06 09:40:49;;;;;;;175.00;164.40;;;2.00;99.90;;;;;;5071250;28;20434;-75
2024/01/06 09:43:15;;;;;;;104.27;97.77;;;2.00;99.90;;;;;;5088396;28;20089;-75
2024/01/06 09:45:41;;;;;;;175.10;164.37;;;2.00;99.90;;;;;;5062589;28;20282;-74
2024/01/06 09:48:15;;;;;;;186.33;175.23;;;2.00;99.90;;;;;;5054833;28;20330;-75
2024/01/06 09:50:42;;;;;;;109.32;102.22;;;2.10;99.90;;;;;;5075145;28;20044;-75
2024/01/06 09:53:11;;;;;;;120.88;113.32;;;2.10;99.90;;;;;;5051937;28;20502;-75
2024/01/06 09:55:38;;;;;;;85.60;80.03;;;2.10;99.90;;;;;;5067309;28;20133;-75
2024/01/06 09:58:06;;;;;;;108.85;101.80;;;2.10;99.90;;;;;;5053891;28;20036;-75
2024/01/06 10:00:32;;;;;;;119.13;111.38;;;2.10;99.90;;;;;;5061069;28;20043;-75
2024/01/06 10:02:57;;;;;;;124.60;116.97;;;2.10;99.90;;;;;;5077954;28;20045;-75
2024/01/06 10:05:23;;;;;;;120.83;113.40;;;2.10;99.90;;;;;;5082814;28;20043;-75
2024/01/06 10:07:49;;;;;;;167.93;157.67;;;2.10;99.90;;;;;;5077424;28;20045;-75
2024/01/06 10:10:16;;;;;;;100.60;94.10;;;2.10;99.90;;;;;;5061515;28;20044;-75
2024/01/06 10:12:42;;;;;;;129.35;121.28;;;2.10;99.90;;;;;;5070759;28;20113;-75
2024/01/06 10:15:10;;;;;;;98.32;92.28;;;2.10;99.90;;;;;;5087297;28;20046;-75
2024/01/06 10:17:42;;;;;;;113.53;106.38;;;2.10;99.90;;;;;;5080932;28;20071;-75
2024/01/06 10:20:12;;;;;;;143.75;134.98;;;2.10;99.90;;;;;;5077165;28;20071;-75
2024/01/06 10:22:40;;;;;;;53.00;49.33;;;2.10;99.90;;;;;;5069027;28;20051;-75
2024/01/06 10:25:08;;;;;;;208.93;195.88;;;2.10;99.90;;;;;;5071352;28;20052;-75
2024/01/06 10:27:43;;;;;;;164.52;154.50;;;2.10;99.90;;;;;;5064467;28;20070;-74
2024/01/06 10:30:09;;;;;;;121.40;113.82;;;2.10;99.90;;;;;;5060590;28;20064;-75
2024/01/06 10:32:36;;;;;;;152.20;142.75;;;2.10;99.90;;;;;;5052049;28;20052;-76
2024/01/06 10:35:03;;;;;;;103.40;96.50;;;2.10;99.90;;;;;;5076094;28;20043;-75
2024/01/06 10:37:30;;;;;;;102.60;95.85;;;2.00;99.90;;;;;;5059423;28;20047;-75
2024/01/06 10:40:09;;;;;;;83.05;77.35;;;2.10;99.90;;;;;;5079813;28;20058;-75
2024/01/06 10:42:36;;;;;;;124.72;116.70;;;2.10;99.90;;;;;;5063126;28;20055;-76
2024/01/06 10:45:02;;;;;;;159.77;149.88;;;2.10;99.90;;;;;;5068113;28;20048;-76
2024/01/06 10:47:31;;;;;;;114.65;107.90;;;2.10;99.90;;;;;;5067684;28;20563;-76
2024/01/06 10:50:00;;;;;;;150.55;141.70;;;2.10;99.90;;;;;;5060820;28;20032;-76
2024/01/06 10:52:27;;;;;;;170.73;160.18;;;2.10;99.90;;;;;;5072781;28;20041;-75
2024/01/06 10:54:54;;;;;;;162.45;152.55;;;2.10;99.90;;;;;;5068949;28;20047;-76
2024/01/06 10:57:20;;;;;;;98.18;92.00;;;2.10;99.90;;;;;;5070925;28;20102;-76
2024/01/06 10:59:50;;;;;;;123.78;115.88;;;2.20;99.90;;;;;;5063930;28;20400;-76
2024/01/06 11:02:18;;;;;;;120.53;113.20;;;2.20;99.90;;;;;;5077371;28;20405;-76
2024/01/06 11:04:46;;;;;;;90.35;84.22;;;2.20;99.90;;;;;;5083604;28;20607;-76
2024/01/06 11:07:15;;;;;;;104.43;97.32;;;2.20;99.90;;;;;;5085518;28;20060;-76
2024/01/06 11:09:50;;;;;;;155.27;145.88;;;2.20;99.90;;;;;;5076133;28;20048;-76
2024/01/06 11:12:17;;;;;;;113.55;106.53;;;2.20;99.90;;;;;;5073849;28;20082;-75
2024/01/06 11:14:42;;;;;;;124.45;116.47;;;2.20;99.90;;;;;;5075534;28;20044;-76
2024/01/06 11:17:10;;;;;;;99.67;93.10;;;2.20;99.90;;;;;;5059014;28;20036;-76
2024/01/06 11:19:41;;;;;;;77.57;72.60;;;2.20;99.90;;;;;;5080320;28;20036;-76
2024/01/06 11:22:34;;;;;;;131.32;123.38;;;2.20;99.90;;;;;;5071613;28;20083;-76
2024/01/06 11:25:08;;;;;;;116.88;109.88;;;2.20;99.90;;;;;;5061641;28;20036;-76
2024/01/06 11:27:35;;;;;;;125.90;118.15;;;2.20;99.90;;;;;;5059170;28;20044;-75
2024/01/06 11:30:06;;;;;;;162.93;153.13;;;2.20;99.90;;;;;;5075932;28;21163;-76
2024/01/06 11:32:42;;;;;;;112.07;105.18;;;2.20;99.90;;;;;;5072251;28;20037;-76
2024/01/06 11:35:10;;;;;;;125.43;117.68;;;2.20;99.90;;;;;;5075520;28;20048;-76
2024/01/06 11:37:41;;;;;;;140.65;132.30;;;2.20;99.90;;;;;;5076957;28;20504;-76
2024/01/06 11:40:23;;;;;;;158.95;149.38;;;2.20;99.90;;;;;;5074120;28;20094;-76
2024/01/06 11:43:06;;;;;;;158.63;149.23;;;2.20;99.90;;;;;;5060136;28;20048;-75
2024/01/06 11:45:38;;;;;;;98.80;92.90;;;2.10;99.90;;;;;;5070598;28;20115;-76
2024/01/06 11:48:08;;;;;;;133.88;125.63;;;2.10;99.90;;;;;;5053611;28;20093;-76
2024/01/06 11:50:38;;;;;;;112.97;106.45;;;2.10;99.90;;;;;;5080420;28;20048;-76
2024/01/06 11:53:05;;;;;;;130.77;122.60;;;2.10;99.90;;;;;;5083868;28;20051;-76
2024/01/06 11:55:34;;;;;;;134.32;126.28;;;2.10;99.90;;;;;;5085622;28;20040;-75
2024/01/06 11:58:05;;;;;;;141.85;133.40;;;2.10;99.90;;;;;;5058198;28;20490;-75
2024/01/06 12:00:39;;;;;;;136.00;127.70;;;2.10;99.90;;;;;;5077049;28;20044;-76
2024/01/06 12:03:05;;;;;;;123.35;116.30;;;2.10;99.90;;;;;;5075748;28;20048;-75
2024/01/06 12:05:30;;;;;;;152.65;143.73;;;2.10;99.90;;;;;;5080308;28;20083;-75
2024/01/06 12:07:58;;;;;;;107.23;100.87;;;2.00;99.90;;;;;;5075154;28;20083;-75
2024/01/06 12:10:25;;;;;;;155.57;146.48;;;2.00;99.90;;;;;;5069351;28;20047;-76
2024/01/06 12:13:08;;;;;;;220.85;206.77;;;2.00;99.90;;;;;;5078144;28;20044;-76
2024/01/06 12:15:34;;;;;;;144.55;136.20;;;2.00;99.90;;;;;;5082129;28;20032;-75
2024/01/06 12:18:03;;;;;;;97.47;91.63;;;2.00;99.90;;;;;;5085479;28;20040;-75